Time;durP1;ratioP1;P1;durP2;ratioP2;P2;SDS_P1;SDS_P2;PMS_P1;PMS_P2;Temp;Humidity;BMP_temperature;BMP_pressure;BME280_temperature;BME280_humidity;BME280_pressure;Samples;Min_cycle;Max_cycle;Signal;HPM_P1;HPM_P2
2022/09/04 00:00:44;;;;;;;4.30;1.90;;;18.30;98.10;;;;;;5034321;28;20461;-69
2022/09/04 00:03:26;;;;;;;1.93;1.83;;;18.20;97.80;;;;;;5031152;28;20459;-69
2022/09/04 00:05:57;;;;;;;2.37;2.20;;;18.30;97.90;;;;;;5037139;28;20470;-68
2022/09/04 00:09:22;;;;;;;7.30;1.70;;;18.30;97.90;;;;;;5025914;28;20470;-68
2022/09/04 00:12:07;;;;;;;2.00;1.83;;;18.20;98.10;;;;;;4997647;28;20993;-69
2022/09/04 00:14:49;;;;;;;2.97;2.67;;;18.20;97.70;;;;;;5033435;28;21024;-69
2022/09/04 00:17:58;;;;;;;1.93;1.80;;;18.20;97.60;;;;;;5031018;28;20470;-69
2022/09/04 00:20:54;;;;;;;2.00;1.90;;;18.20;97.40;;;;;;5031502;28;20456;-69
2022/09/04 00:23:34;;;;;;;2.00;1.80;;;18.20;97.70;;;;;;5017991;28;20525;-69
2022/09/04 00:26:06;;;;;;;2.53;2.17;;;18.20;97.60;;;;;;5036211;28;20464;-71
2022/09/04 00:28:41;;;;;;;3.50;2.83;;;18.20;97.60;;;;;;5042245;28;20471;-69
2022/09/04 00:31:11;;;;;;;2.30;2.10;;;18.10;97.50;;;;;;5033210;28;20462;-69
2022/09/04 00:33:59;;;;;;;5.23;2.63;;;18.10;97.60;;;;;;5034221;28;20486;-68
2022/09/04 00:36:26;;;;;;;2.00;1.80;;;18.10;97.50;;;;;;5043385;28;20518;-69
2022/09/04 00:39:07;;;;;;;2.67;2.17;;;18.10;97.60;;;;;;5047496;28;20474;-69
2022/09/04 00:41:57;;;;;;;4.17;2.40;;;18.10;97.60;;;;;;5049516;28;20551;-70
2022/09/04 00:45:01;;;;;;;2.77;2.50;;;18.10;97.50;;;;;;5043863;28;20473;-69
2022/09/04 00:47:51;;;;;;;3.90;2.97;;;18.00;97.50;;;;;;5038441;28;20484;-69
2022/09/04 00:50:45;;;;;;;3.47;2.70;;;18.00;97.70;;;;;;5045830;28;20465;-69
2022/09/04 00:53:36;;;;;;;7.60;3.57;;;18.00;97.90;;;;;;5038380;28;20455;-68
2022/09/04 00:56:35;;;;;;;4.90;3.20;;;18.00;97.60;;;;;;5042174;28;20826;-71
2022/09/04 00:59:19;;;;;;;3.57;2.77;;;17.90;97.60;;;;;;5043084;28;20450;-70
2022/09/04 01:01:46;;;;;;;4.10;3.00;;;17.90;97.50;;;;;;5047244;28;20508;-70
2022/09/04 01:04:12;;;;;;;4.37;3.43;;;17.90;97.70;;;;;;5027934;28;21122;-68
2022/09/04 01:07:01;;;;;;;3.30;2.47;;;17.90;97.90;;;;;;5047213;28;20567;-70
2022/09/04 01:09:53;;;;;;;3.47;2.40;;;17.90;97.70;;;;;;5048764;28;20212;-69
2022/09/04 01:12:18;;;;;;;3.73;3.23;;;17.90;97.60;;;;;;5027136;28;20465;-69
2022/09/04 01:14:54;;;;;;;4.67;3.50;;;17.90;97.60;;;;;;5043598;28;20462;-68
2022/09/04 01:17:22;;;;;;;3.90;3.50;;;17.90;97.60;;;;;;5051306;28;20226;-68
2022/09/04 01:20:15;;;;;;;3.93;3.00;;;17.90;97.70;;;;;;5061524;28;20454;-70
2022/09/04 01:23:16;;;;;;;3.93;2.47;;;17.80;97.80;;;;;;5046242;28;20528;-69
2022/09/04 01:25:59;;;;;;;3.90;2.83;;;17.80;97.60;;;;;;5054091;28;20512;-69
2022/09/04 01:28:47;;;;;;;4.77;2.90;;;17.80;97.80;;;;;;5050659;28;21004;-70
2022/09/04 01:31:39;;;;;;;4.10;3.70;;;17.80;97.60;;;;;;5048499;28;20500;-70
2022/09/04 01:34:24;;;;;;;4.13;3.73;;;17.80;97.50;;;;;;5044759;28;20550;-69
2022/09/04 01:37:10;;;;;;;4.03;3.20;;;17.80;97.50;;;;;;5056033;28;20497;-68
2022/09/04 01:39:37;;;;;;;3.83;3.07;;;17.70;97.60;;;;;;5051908;28;20972;-69
2022/09/04 01:42:13;;;;;;;4.30;3.27;;;17.70;97.70;;;;;;5036569;28;20443;-69
2022/09/04 01:44:39;;;;;;;2.80;2.30;;;17.70;97.70;;;;;;5031237;28;20589;-68
2022/09/04 01:47:31;;;;;;;4.10;3.07;;;17.70;97.80;;;;;;5047874;28;20975;-69
2022/09/04 01:50:12;;;;;;;4.00;2.90;;;17.70;97.90;;;;;;5033293;28;20450;-68
2022/09/04 01:53:10;;;;;;;4.60;2.77;;;17.70;97.80;;;;;;5033716;28;20446;-70
2022/09/04 01:56:03;;;;;;;5.50;3.07;;;17.70;97.90;;;;;;5042809;28;20823;-69
2022/09/04 01:58:54;;;;;;;3.93;3.20;;;17.70;98.00;;;;;;5049973;28;20458;-69
2022/09/04 02:01:52;;;;;;;3.07;2.53;;;17.70;98.00;;;;;;5050961;28;20525;-69
2022/09/04 02:04:33;;;;;;;5.00;2.83;;;17.70;97.80;;;;;;5030227;28;20950;-69
2022/09/04 02:07:11;;;;;;;3.30;2.60;;;17.70;98.20;;;;;;5061883;28;20477;-69
2022/09/04 02:09:43;;;;;;;3.20;2.90;;;17.70;98.30;;;;;;5037850;28;20445;-69
2022/09/04 02:12:41;;;;;;;5.63;3.40;;;17.70;98.10;;;;;;5038506;28;20451;-69
2022/09/04 02:15:32;;;;;;;4.60;3.33;;;17.70;98.40;;;;;;5045578;28;20458;-69
2022/09/04 02:18:31;;;;;;;2.70;2.50;;;17.70;98.50;;;;;;5050280;28;20455;-69
2022/09/04 02:21:22;;;;;;;3.70;2.90;;;17.70;98.30;;;;;;5037317;28;20459;-69
2022/09/04 02:23:59;;;;;;;4.50;3.97;;;17.70;98.20;;;;;;5031806;28;20457;-69
2022/09/04 02:26:46;;;;;;;3.30;2.77;;;17.70;98.50;;;;;;5034714;28;20909;-71
2022/09/04 02:29:38;;;;;;;4.33;3.40;;;17.60;98.20;;;;;;5048171;28;20459;-67
2022/09/04 02:32:17;;;;;;;4.10;3.20;;;17.60;98.50;;;;;;5044138;28;20878;-69
2022/09/04 02:34:57;;;;;;;3.20;2.80;;;17.70;98.70;;;;;;5038668;28;20450;-69
2022/09/04 02:37:36;;;;;;;3.87;3.03;;;17.70;98.50;;;;;;5040195;28;20462;-69
2022/09/04 02:40:41;;;;;;;3.80;3.30;;;17.70;99.00;;;;;;5048676;28;20494;-68
2022/09/04 02:43:43;;;;;;;3.40;3.10;;;17.70;98.60;;;;;;5053703;28;20451;-69
2022/09/04 02:46:28;;;;;;;3.87;3.33;;;17.70;98.50;;;;;;5040396;28;20613;-69
2022/09/04 02:49:06;;;;;;;4.70;3.13;;;17.70;98.90;;;;;;5048450;28;20459;-69
2022/09/04 02:51:53;;;;;;;5.37;3.57;;;17.70;98.90;;;;;;5040106;28;20478;-70
2022/09/04 02:54:38;;;;;;;6.50;3.50;;;17.70;98.50;;;;;;5045655;28;20465;-69
2022/09/04 02:57:23;;;;;;;4.33;3.30;;;17.70;99.00;;;;;;5041255;28;20920;-70
2022/09/04 03:00:14;;;;;;;6.53;4.00;;;17.70;99.40;;;;;;5040879;28;21028;-70
2022/09/04 03:03:06;;;;;;;7.87;3.77;;;17.70;99.00;;;;;;5042892;28;20454;-68
2022/09/04 03:05:40;;;;;;;3.70;2.83;;;17.70;99.20;;;;;;5039866;28;20975;-70
2022/09/04 03:08:22;;;;;;;5.03;3.13;;;17.70;99.20;;;;;;5037242;28;20478;-69
2022/09/04 03:11:05;;;;;;;5.50;3.47;;;17.70;99.90;;;;;;5038351;28;20466;-69
2022/09/04 03:13:39;;;;;;;5.53;2.80;;;17.70;99.80;;;;;;5038697;28;20471;-70
2022/09/04 03:16:20;;;;;;;3.83;3.23;;;17.70;99.40;;;;;;5058203;28;20470;-69
2022/09/04 03:19:13;;;;;;;5.43;3.30;;;17.70;99.30;;;;;;5057633;28;20455;-70
2022/09/04 03:21:59;;;;;;;6.33;3.97;;;17.70;99.90;;;;;;5054866;28;20466;-68
2022/09/04 03:25:00;;;;;;;5.53;3.90;;;17.70;99.90;;;;;;5040187;28;20470;-69
2022/09/04 03:27:29;;;;;;;7.80;4.70;;;17.70;99.90;;;;;;5044737;28;20479;-69
2022/09/04 03:30:05;;;;;;;7.70;4.60;;;17.70;99.90;;;;;;5023503;28;20832;-69
2022/09/04 03:32:31;;;;;;;5.20;4.10;;;17.70;99.90;;;;;;5042321;28;20493;-68
2022/09/04 03:35:05;;;;;;;6.80;4.83;;;17.70;99.90;;;;;;5040908;28;20501;-69
2022/09/04 03:37:55;;;;;;;6.33;3.87;;;17.70;99.80;;;;;;5041768;28;20226;-69
2022/09/04 03:40:41;;;;;;;7.97;4.23;;;17.70;99.90;;;;;;5052131;28;20894;-69
2022/09/04 03:43:22;;;;;;;7.57;4.83;;;17.70;99.90;;;;;;5021040;28;20466;-69
2022/09/04 03:46:20;;;;;;;6.23;4.70;;;17.70;99.80;;;;;;5041528;28;21075;-68
2022/09/04 03:49:06;;;;;;;9.27;5.00;;;17.70;99.90;;;;;;5038000;28;20456;-69
2022/09/04 03:52:01;;;;;;;6.60;4.63;;;17.70;99.90;;;;;;5039279;28;20462;-69
2022/09/04 03:54:55;;;;;;;7.93;5.07;;;17.70;99.90;;;;;;5041976;28;20446;-69
2022/09/04 03:57:34;;;;;;;9.90;5.87;;;17.80;99.90;;;;;;5036464;28;20554;-68
2022/09/04 04:00:10;;;;;;;7.67;4.90;;;17.80;99.90;;;;;;5046743;28;20461;-69
2022/09/04 04:03:10;;;;;;;7.97;5.10;;;17.80;99.90;;;;;;5041497;28;20449;-69
2022/09/04 04:05:43;;;;;;;9.33;5.80;;;17.80;99.90;;;;;;5039672;28;20864;-69
2022/09/04 04:08:18;;;;;;;12.10;5.57;;;17.70;99.90;;;;;;5037838;28;20502;-70
2022/09/04 04:11:18;;;;;;;8.60;5.40;;;17.70;99.90;;;;;;5044435;28;20968;-69
2022/09/04 04:14:08;;;;;;;7.97;4.90;;;17.70;99.90;;;;;;5043809;28;20581;-68
2022/09/04 04:16:51;;;;;;;7.50;5.33;;;17.70;99.90;;;;;;5043262;28;20553;-69
2022/09/04 04:20:04;;;;;;;8.73;5.40;;;17.70;99.90;;;;;;5042861;28;20516;-70
2022/09/04 04:22:48;;;;;;;6.70;4.40;;;17.70;99.90;;;;;;5046072;28;20463;-69
2022/09/04 04:25:32;;;;;;;14.73;5.13;;;17.70;99.90;;;;;;5044854;28;20471;-69
2022/09/04 04:27:59;;;;;;;7.47;5.13;;;17.70;99.90;;;;;;5038563;28;20482;-68
2022/09/04 04:30:33;;;;;;;8.23;5.37;;;17.70;99.90;;;;;;5059206;28;20455;-70
2022/09/04 04:33:16;;;;;;;7.90;4.93;;;17.80;99.90;;;;;;5043562;28;20463;-70
2022/09/04 04:35:50;;;;;;;7.77;5.23;;;17.80;99.90;;;;;;5043665;28;20466;-69
2022/09/04 04:38:26;;;;;;;9.37;5.87;;;17.80;99.90;;;;;;5039901;28;20551;-69
2022/09/04 04:41:10;;;;;;;8.87;6.00;;;17.80;99.90;;;;;;5043593;28;20916;-70
2022/09/04 04:44:00;;;;;;;9.00;6.60;;;17.80;99.90;;;;;;5046867;28;20539;-70
2022/09/04 04:46:38;;;;;;;7.53;5.83;;;17.80;99.90;;;;;;5043508;28;20466;-69
2022/09/04 04:49:32;;;;;;;9.40;5.33;;;17.80;99.90;;;;;;5048855;28;20553;-69
2022/09/04 04:52:25;;;;;;;9.73;5.87;;;17.80;99.90;;;;;;5055169;28;20458;-69
2022/09/04 04:54:57;;;;;;;10.00;5.63;;;17.80;99.90;;;;;;5055774;28;20504;-70
2022/09/04 04:57:44;;;;;;;10.90;5.90;;;17.80;99.90;;;;;;5040985;28;20857;-69
2022/09/04 05:00:35;;;;;;;12.40;6.47;;;17.80;99.90;;;;;;5036173;28;20484;-70
2022/09/04 05:03:22;;;;;;;10.17;5.80;;;17.80;99.90;;;;;;5057440;28;20685;-69
2022/09/04 05:06:00;;;;;;;8.30;5.57;;;17.80;99.90;;;;;;5046672;28;20462;-69
2022/09/04 05:09:01;;;;;;;10.33;6.40;;;17.80;99.90;;;;;;5042981;28;20466;-69
2022/09/04 05:11:34;;;;;;;11.33;6.50;;;17.80;99.90;;;;;;5047805;28;20460;-70
2022/09/04 05:14:08;;;;;;;10.80;6.53;;;17.80;99.90;;;;;;5046334;28;20463;-68
2022/09/04 05:16:53;;;;;;;13.53;5.70;;;17.80;99.90;;;;;;5057267;28;20468;-70
2022/09/04 05:19:39;;;;;;;12.17;6.73;;;17.80;99.90;;;;;;5044683;28;20492;-69
2022/09/04 05:22:14;;;;;;;10.73;6.43;;;17.80;99.90;;;;;;5040051;28;20455;-69
2022/09/04 05:24:49;;;;;;;8.37;5.37;;;17.90;99.90;;;;;;5056090;28;20531;-70
2022/09/04 05:27:27;;;;;;;10.30;5.17;;;17.90;99.90;;;;;;5041895;28;21158;-70
2022/09/04 05:30:02;;;;;;;9.10;5.10;;;17.80;99.90;;;;;;5043307;28;20484;-69
2022/09/04 05:32:50;;;;;;;9.03;5.30;;;17.90;99.90;;;;;;5044161;28;20537;-70
2022/09/04 05:35:46;;;;;;;7.00;4.17;;;17.90;99.90;;;;;;5039680;28;20448;-69
2022/09/04 05:38:32;;;;;;;8.53;4.83;;;17.90;99.90;;;;;;5038459;28;20512;-68
2022/09/04 05:41:23;;;;;;;7.67;5.03;;;17.90;99.90;;;;;;5041885;28;20535;-71
2022/09/04 05:43:59;;;;;;;5.90;4.10;;;17.90;99.90;;;;;;5038553;28;20538;-69
2022/09/04 05:46:38;;;;;;;8.27;4.10;;;17.90;99.90;;;;;;5039197;28;20546;-70
2022/09/04 05:49:09;;;;;;;9.20;5.47;;;17.90;99.90;;;;;;5023908;28;20494;-68
2022/09/04 05:52:09;;;;;;;9.80;5.33;;;17.90;99.90;;;;;;5044784;28;20452;-69
2022/09/04 05:54:43;;;;;;;8.50;5.07;;;17.90;99.90;;;;;;5041567;28;20442;-69
2022/09/04 05:57:30;;;;;;;9.20;5.50;;;17.90;99.90;;;;;;5047232;28;20552;-71
2022/09/04 06:00:15;;;;;;;6.80;4.33;;;17.90;99.90;;;;;;5031572;28;20454;-70
2022/09/04 06:03:02;;;;;;;6.73;4.80;;;17.90;99.90;;;;;;5037764;28;20462;-70
2022/09/04 06:05:57;;;;;;;7.27;4.57;;;17.90;99.90;;;;;;5041558;28;20454;-69
2022/09/04 06:08:30;;;;;;;9.50;5.10;;;17.90;99.90;;;;;;5038514;28;20546;-69
2022/09/04 06:11:17;;;;;;;5.60;4.37;;;17.90;99.90;;;;;;5036449;28;20470;-70
2022/09/04 06:14:08;;;;;;;9.67;5.30;;;17.90;99.90;;;;;;5038059;28;20451;-70
2022/09/04 06:16:56;;;;;;;7.27;4.77;;;17.90;99.90;;;;;;5045585;28;20511;-68
2022/09/04 06:19:48;;;;;;;9.73;5.50;;;17.90;99.90;;;;;;5059626;28;20990;-70
2022/09/04 06:22:42;;;;;;;6.83;4.53;;;18.00;99.90;;;;;;5042692;28;20966;-68
2022/09/04 06:25:32;;;;;;;8.37;5.30;;;18.00;99.90;;;;;;5042790;28;20469;-70
2022/09/04 06:28:18;;;;;;;9.57;5.27;;;17.90;99.90;;;;;;5057497;28;20478;-70
2022/09/04 06:31:16;;;;;;;10.67;5.77;;;18.00;99.90;;;;;;5051002;28;20455;-69
2022/09/04 06:34:12;;;;;;;7.00;4.97;;;18.00;99.90;;;;;;5021612;28;20466;-69
2022/09/04 06:36:59;;;;;;;8.27;5.00;;;18.00;99.90;;;;;;5039785;28;20462;-70
2022/09/04 06:39:45;;;;;;;7.77;5.40;;;18.00;99.90;;;;;;5035430;28;20443;-70
2022/09/04 06:42:50;;;;;;;11.73;5.60;;;18.00;99.90;;;;;;5035841;28;21047;-68
2022/09/04 06:45:31;;;;;;;9.87;6.60;;;18.00;99.90;;;;;;5030195;28;20462;-70
2022/09/04 06:48:08;;;;;;;11.60;6.37;;;18.00;99.90;;;;;;5041167;28;20467;-71
2022/09/04 06:50:45;;;;;;;7.83;5.90;;;18.10;99.90;;;;;;5039600;28;20446;-69
2022/09/04 06:53:33;;;;;;;8.00;5.77;;;18.10;99.90;;;;;;5034734;28;20891;-70
2022/09/04 06:56:25;;;;;;;6.60;5.20;;;18.00;99.90;;;;;;5042106;28;20565;-70
2022/09/04 06:59:12;;;;;;;8.10;5.10;;;18.10;99.90;;;;;;5039234;28;20546;-69
2022/09/04 07:01:59;;;;;;;9.47;6.23;;;18.10;99.90;;;;;;5020623;28;20446;-69
2022/09/04 07:04:24;;;;;;;7.37;5.70;;;18.10;99.90;;;;;;5042760;28;20471;-68
2022/09/04 07:07:02;;;;;;;9.73;5.10;;;18.10;99.90;;;;;;5041559;28;20477;-69
2022/09/04 07:09:38;;;;;;;8.17;5.33;;;18.10;99.90;;;;;;5038848;28;20315;-69
2022/09/04 07:12:18;;;;;;;7.90;5.37;;;18.10;99.90;;;;;;5050065;28;20462;-68
2022/09/04 07:15:34;;;;;;;8.60;5.80;;;18.10;99.90;;;;;;5045868;28;20537;-69
2022/09/04 07:18:30;;;;;;;8.43;5.50;;;18.20;99.90;;;;;;5007191;28;20962;-70
2022/09/04 07:21:22;;;;;;;7.03;5.53;;;18.20;99.90;;;;;;5029219;28;20524;-69
2022/09/04 07:23:59;;;;;;;9.97;5.50;;;18.20;99.90;;;;;;5055165;28;20451;-70
2022/09/04 07:26:54;;;;;;;6.87;4.90;;;18.20;99.90;;;;;;5040550;28;20451;-69
2022/09/04 07:29:43;;;;;;;10.43;7.40;;;18.30;99.90;;;;;;5043978;28;20577;-68
2022/09/04 07:32:25;;;;;;;7.10;5.30;;;18.30;99.90;;;;;;5056020;28;20466;-70
2022/09/04 07:35:10;;;;;;;7.40;5.40;;;18.30;99.90;;;;;;5038571;28;20578;-69
2022/09/04 07:37:48;;;;;;;8.80;5.83;;;18.30;99.90;;;;;;5046391;28;20457;-68
2022/09/04 07:40:25;;;;;;;5.97;5.23;;;18.30;99.90;;;;;;5038751;28;20444;-69
2022/09/04 07:43:12;;;;;;;7.03;5.03;;;18.30;99.90;;;;;;5037438;28;20455;-70
2022/09/04 07:45:47;;;;;;;6.57;5.47;;;18.40;99.90;;;;;;5042111;28;20449;-70
2022/09/04 07:48:20;;;;;;;8.73;6.40;;;18.40;99.90;;;;;;5037634;28;20524;-69
2022/09/04 07:50:46;;;;;;;4.80;4.13;;;18.30;99.90;;;;;;5042614;28;20458;-68
2022/09/04 07:53:28;;;;;;;6.27;4.87;;;18.40;99.90;;;;;;5038223;28;20467;-70
2022/09/04 07:56:15;;;;;;;6.40;5.00;;;18.40;99.90;;;;;;5040421;28;20219;-70
2022/09/04 07:58:43;;;;;;;7.83;5.30;;;18.40;99.90;;;;;;5042524;28;20523;-68
2022/09/04 08:01:35;;;;;;;5.20;4.33;;;18.40;99.90;;;;;;5037944;28;20476;-68
2022/09/04 08:04:36;;;;;;;6.20;4.73;;;18.50;99.90;;;;;;5031896;28;20989;-69
2022/09/04 08:07:06;;;;;;;9.00;5.53;;;18.50;99.90;;;;;;5025835;28;20506;-68
2022/09/04 08:09:47;;;;;;;6.23;5.47;;;18.50;99.90;;;;;;5040779;28;20482;-70
2022/09/04 08:12:31;;;;;;;7.73;5.40;;;18.60;99.90;;;;;;5040701;28;20470;-70
2022/09/04 08:15:21;;;;;;;9.93;6.00;;;18.60;99.90;;;;;;5039174;28;20464;-70
2022/09/04 08:18:00;;;;;;;6.97;5.50;;;18.70;99.90;;;;;;5051585;28;20620;-70
2022/09/04 08:20:33;;;;;;;7.50;4.70;;;18.60;99.90;;;;;;5033798;28;20454;-69
2022/09/04 08:23:23;;;;;;;5.40;4.63;;;18.70;99.90;;;;;;5054642;28;20450;-70
2022/09/04 08:26:13;;;;;;;7.57;5.90;;;18.70;99.90;;;;;;5045794;28;20451;-70
2022/09/04 08:28:56;;;;;;;6.40;4.57;;;18.70;99.90;;;;;;5037541;28;20467;-69
2022/09/04 08:31:29;;;;;;;8.90;6.20;;;18.70;99.90;;;;;;5043439;28;20470;-69
2022/09/04 08:34:29;;;;;;;9.53;6.63;;;18.80;99.90;;;;;;5035246;28;20465;-70
2022/09/04 08:37:22;;;;;;;9.30;6.23;;;18.80;99.90;;;;;;5053934;28;20466;-69
2022/09/04 08:40:17;;;;;;;9.60;6.27;;;18.90;99.90;;;;;;5037406;28;20981;-70
2022/09/04 08:42:52;;;;;;;9.10;5.60;;;19.00;99.90;;;;;;5032008;28;20452;-70
2022/09/04 08:45:27;;;;;;;6.80;5.20;;;18.90;99.90;;;;;;5036371;28;20454;-69
2022/09/04 08:48:17;;;;;;;8.97;6.40;;;19.00;99.90;;;;;;5038743;28;20470;-69
2022/09/04 08:50:59;;;;;;;6.47;5.50;;;19.00;99.90;;;;;;5047204;28;20880;-70
2022/09/04 08:53:52;;;;;;;8.10;5.80;;;19.00;99.90;;;;;;5033225;28;20963;-70
2022/09/04 08:56:37;;;;;;;6.03;4.70;;;19.00;99.90;;;;;;5040376;28;20546;-70
2022/09/04 08:59:14;;;;;;;7.87;5.93;;;19.00;99.90;;;;;;5039456;28;20478;-70
2022/09/04 09:02:14;;;;;;;7.33;5.47;;;19.00;99.90;;;;;;5032251;28;20989;-69
2022/09/04 09:04:58;;;;;;;11.23;5.90;;;19.10;99.90;;;;;;5036512;28;20526;-70
2022/09/04 09:08:02;;;;;;;6.20;5.27;;;19.10;99.90;;;;;;5035935;28;20454;-69
2022/09/04 09:10:47;;;;;;;7.23;4.97;;;19.10;99.90;;;;;;5040314;28;20522;-70
2022/09/04 09:13:34;;;;;;;5.70;4.97;;;19.20;99.90;;;;;;5035966;28;20829;-70
2022/09/04 09:16:41;;;;;;;6.17;5.10;;;19.20;99.90;;;;;;5052886;28;20459;-68
2022/09/04 09:19:21;;;;;;;5.73;5.23;;;19.30;99.90;;;;;;5038351;28;20861;-71
2022/09/04 09:22:09;;;;;;;6.17;4.60;;;19.30;99.90;;;;;;5056051;28;20482;-70
2022/09/04 09:24:50;;;;;;;6.50;5.80;;;19.40;99.90;;;;;;5037668;28;20501;-69
2022/09/04 09:27:34;;;;;;;6.30;4.70;;;19.40;99.90;;;;;;5036711;28;20497;-69
2022/09/04 09:30:20;;;;;;;7.63;5.90;;;19.50;99.90;;;;;;5043302;28;20466;-71
2022/09/04 09:32:45;;;;;;;7.23;5.47;;;19.50;99.90;;;;;;5031083;28;20860;-70
2022/09/04 09:35:53;;;;;;;8.13;6.70;;;19.60;99.90;;;;;;5051667;28;20468;-70
2022/09/04 09:38:27;;;;;;;7.57;5.70;;;19.70;99.90;;;;;;5026285;28;20640;-68
2022/09/04 09:41:31;;;;;;;7.10;6.10;;;19.70;99.90;;;;;;5036865;28;20452;-69
2022/09/04 09:44:20;;;;;;;7.13;5.90;;;19.70;99.90;;;;;;5020725;28;20517;-69
2022/09/04 09:46:52;;;;;;;7.97;6.30;;;19.80;99.90;;;;;;5035682;28;20483;-70
2022/09/04 09:49:39;;;;;;;5.30;4.80;;;19.80;99.90;;;;;;5036313;28;20515;-68
2022/09/04 09:52:18;;;;;;;8.17;6.77;;;19.90;99.90;;;;;;5064828;28;20458;-70
2022/09/04 09:55:22;;;;;;;9.70;7.07;;;20.00;99.90;;;;;;5038444;28;20458;-70
2022/09/04 09:58:09;;;;;;;8.80;6.70;;;20.10;99.90;;;;;;5033701;28;20959;-69
2022/09/04 10:01:02;;;;;;;7.83;6.33;;;20.20;99.90;;;;;;5041361;28;20865;-70
2022/09/04 10:03:37;;;;;;;6.87;6.20;;;20.20;99.90;;;;;;5030294;28;21016;-71
2022/09/04 10:06:52;;;;;;;7.97;6.50;;;20.20;99.90;;;;;;5042540;28;20466;-70
2022/09/04 10:10:14;;;;;;;6.30;5.47;;;20.30;99.90;;;;;;5054803;28;20507;-68
2022/09/04 10:12:58;;;;;;;6.87;6.17;;;20.30;99.90;;;;;;5060062;28;20790;-69
2022/09/04 10:16:01;;;;;;;6.70;6.00;;;20.40;99.90;;;;;;5065013;28;20508;-70
2022/09/04 10:18:45;;;;;;;7.23;5.90;;;20.50;99.90;;;;;;5047033;28;20868;-70
2022/09/04 10:21:48;;;;;;;11.00;5.83;;;20.60;99.90;;;;;;5043680;28;20477;-68
2022/09/04 10:24:53;;;;;;;7.23;6.50;;;20.60;99.90;;;;;;5044224;28;20989;-69
2022/09/04 10:27:54;;;;;;;6.00;5.40;;;20.60;99.90;;;;;;5043978;28;20475;-69
2022/09/04 10:30:25;;;;;;;6.63;5.47;;;20.60;99.90;;;;;;5034866;28;20477;-69
2022/09/04 10:32:57;;;;;;;5.60;5.10;;;20.70;99.90;;;;;;5050631;28;20568;-69
2022/09/04 10:35:31;;;;;;;6.23;5.63;;;20.70;99.90;;;;;;5048034;28;20500;-70
2022/09/04 10:38:18;;;;;;;7.93;5.50;;;20.70;99.90;;;;;;5044628;28;20544;-69
2022/09/04 10:41:08;;;;;;;5.60;5.10;;;20.70;99.90;;;;;;5049425;28;20438;-69
2022/09/04 10:44:03;;;;;;;6.73;6.13;;;20.80;99.90;;;;;;5045502;28;20496;-69
2022/09/04 10:46:51;;;;;;;6.60;5.90;;;21.00;99.90;;;;;;5031624;28;20439;-70
2022/09/04 10:49:26;;;;;;;6.93;6.30;;;21.20;99.90;;;;;;5025685;28;20447;-69
2022/09/04 10:52:23;;;;;;;10.30;5.40;;;21.40;99.90;;;;;;5045322;28;20449;-70
2022/09/04 10:55:13;;;;;;;6.73;5.27;;;21.50;99.90;;;;;;5038042;28;20438;-69
2022/09/04 10:57:52;;;;;;;5.67;4.97;;;21.60;99.90;;;;;;5043842;28;20465;-69
2022/09/04 11:00:20;;;;;;;5.70;5.10;;;21.70;99.90;;;;;;5043836;28;20983;-70
2022/09/04 11:03:13;;;;;;;5.77;5.07;;;21.80;99.90;;;;;;5045326;28;20458;-69
2022/09/04 11:06:28;;;;;;;6.00;5.40;;;22.00;99.90;;;;;;5029216;28;20965;-69
2022/09/04 11:09:13;;;;;;;6.63;6.03;;;22.10;99.90;;;;;;5047969;28;20466;-71
2022/09/04 11:12:17;;;;;;;8.73;5.67;;;22.40;99.90;;;;;;5041526;28;20950;-70
2022/09/04 11:14:48;;;;;;;8.30;6.47;;;22.50;99.90;;;;;;5046857;28;20875;-69
2022/09/04 11:17:39;;;;;;;6.50;6.00;;;22.70;99.90;;;;;;5048000;28;20841;-68
2022/09/04 11:20:35;;;;;;;6.37;5.77;;;22.80;99.90;;;;;;5049959;28;20541;-68
2022/09/04 11:23:32;;;;;;;5.33;4.93;;;22.90;99.90;;;;;;5028135;28;20496;-71
2022/09/04 11:26:17;;;;;;;5.90;5.40;;;23.00;99.90;;;;;;5027198;28;20465;-69
2022/09/04 11:29:05;;;;;;;5.00;4.50;;;23.20;99.90;;;;;;5049310;28;20561;-69
2022/09/04 11:31:38;;;;;;;5.67;5.10;;;23.30;99.90;;;;;;5047346;28;20462;-69
2022/09/04 11:34:25;;;;;;;4.87;4.43;;;23.40;99.90;;;;;;5031739;28;20519;-70
2022/09/04 11:37:14;;;;;;;4.67;4.27;;;23.50;99.90;;;;;;5046039;28;20485;-70
2022/09/04 11:39:51;;;;;;;4.57;4.27;;;23.70;99.90;;;;;;5042530;28;20487;-68
2022/09/04 11:42:32;;;;;;;4.53;4.13;;;23.80;99.90;;;;;;5047097;28;20453;-69
2022/09/04 11:45:29;;;;;;;4.77;4.37;;;23.80;99.90;;;;;;5036504;28;20462;-69
2022/09/04 11:48:08;;;;;;;3.80;3.50;;;24.00;99.90;;;;;;5055992;28;20978;-69
2022/09/04 11:51:23;;;;;;;5.53;4.17;;;24.20;99.90;;;;;;5037020;28;20981;-69
2022/09/04 11:54:16;;;;;;;3.83;3.50;;;24.40;99.90;;;;;;5035319;28;20491;-69
2022/09/04 11:57:09;;;;;;;4.77;3.87;;;24.40;99.90;;;;;;5033973;28;20466;-70
2022/09/04 12:00:00;;;;;;;3.90;3.60;;;24.40;99.90;;;;;;5055868;28;20484;-70
2022/09/04 12:02:47;;;;;;;3.00;2.80;;;24.40;99.90;;;;;;5056928;28;20458;-69
2022/09/04 12:05:40;;;;;;;3.53;3.33;;;24.60;99.90;;;;;;5030034;28;20472;-69
2022/09/04 12:08:17;;;;;;;3.70;3.40;;;24.70;99.90;;;;;;5032579;28;20523;-68
2022/09/04 12:11:08;;;;;;;3.47;3.23;;;24.80;99.90;;;;;;5044100;28;20519;-71
2022/09/04 12:13:58;;;;;;;4.07;3.67;;;24.80;99.90;;;;;;5064227;28;20451;-70
2022/09/04 12:16:42;;;;;;;3.20;3.00;;;24.80;99.90;;;;;;5047143;28;20467;-69
2022/09/04 12:19:27;;;;;;;3.67;3.37;;;24.80;99.90;;;;;;5049597;28;20525;-68
2022/09/04 12:22:06;;;;;;;3.60;3.30;;;24.80;99.90;;;;;;5053560;28;21018;-70
2022/09/04 12:24:50;;;;;;;3.53;3.23;;;24.80;99.90;;;;;;5048151;28;20443;-69
2022/09/04 12:27:34;;;;;;;3.73;3.43;;;24.80;99.90;;;;;;5037622;28;20508;-69
2022/09/04 12:30:04;;;;;;;3.60;3.30;;;24.80;99.90;;;;;;5042909;28;20869;-70
2022/09/04 12:33:01;;;;;;;2.80;2.60;;;24.80;99.90;;;;;;5052967;28;20462;-70
2022/09/04 12:35:59;;;;;;;4.30;2.90;;;24.80;99.90;;;;;;5050770;28;20919;-68
2022/09/04 12:39:15;;;;;;;2.70;2.50;;;25.20;99.90;;;;;;5028016;28;20828;-70
2022/09/04 12:42:17;;;;;;;2.40;2.30;;;25.30;99.90;;;;;;5019534;28;20443;-70
2022/09/04 12:44:53;;;;;;;2.63;2.43;;;25.50;99.90;;;;;;5046002;28;20501;-68
2022/09/04 12:47:44;;;;;;;2.90;2.70;;;25.50;99.90;;;;;;5047868;28;20484;-70
2022/09/04 12:50:29;;;;;;;2.67;2.37;;;25.40;99.90;;;;;;5052000;28;20937;-69
2022/09/04 12:53:42;;;;;;;2.73;2.53;;;25.30;99.90;;;;;;5049654;28;20456;-70
2022/09/04 12:56:14;;;;;;;2.83;2.67;;;25.50;99.90;;;;;;5041462;28;20462;-70
2022/09/04 12:58:49;;;;;;;2.63;2.50;;;25.70;99.90;;;;;;5041717;28;20461;-69
2022/09/04 13:01:30;;;;;;;2.83;2.63;;;26.00;99.70;;;;;;5039211;28;20467;-70
2022/09/04 13:04:08;;;;;;;2.20;2.00;;;26.10;99.90;;;;;;5050385;28;20450;-70
2022/09/04 13:06:46;;;;;;;2.17;2.07;;;26.20;99.90;;;;;;5050922;28;20965;-70
2022/09/04 13:09:23;;;;;;;2.23;2.13;;;26.30;99.20;;;;;;5044876;28;20517;-70
2022/09/04 13:11:54;;;;;;;2.37;2.27;;;26.40;99.70;;;;;;5037716;28;20482;-70
2022/09/04 13:14:57;;;;;;;2.80;2.60;;;26.40;98.60;;;;;;5061725;28;20933;-70
2022/09/04 13:17:26;;;;;;;2.87;2.67;;;26.50;98.80;;;;;;5048364;28;20526;-70
2022/09/04 13:20:16;;;;;;;3.47;3.17;;;26.50;97.60;;;;;;5046515;28;20520;-69
2022/09/04 13:23:13;;;;;;;2.20;2.10;;;26.50;97.90;;;;;;5050792;28;20463;-70
2022/09/04 13:25:56;;;;;;;2.23;2.13;;;26.80;97.00;;;;;;5049583;28;20450;-69
2022/09/04 13:28:29;;;;;;;2.20;2.10;;;27.10;96.00;;;;;;5049962;28;20553;-70
2022/09/04 13:31:17;;;;;;;2.70;2.50;;;27.00;96.60;;;;;;5062219;28;20483;-70
2022/09/04 13:34:05;;;;;;;2.20;2.10;;;27.10;97.00;;;;;;5029718;28;20485;-70
2022/09/04 13:36:53;;;;;;;2.17;2.07;;;27.10;96.10;;;;;;5049766;28;20374;-70
2022/09/04 13:39:50;;;;;;;3.33;3.13;;;27.00;95.90;;;;;;5047700;28;20252;-69
2022/09/04 13:42:47;;;;;;;2.13;2.03;;;27.10;95.70;;;;;;5024394;28;20703;-70
2022/09/04 13:45:22;;;;;;;2.37;2.17;;;27.30;95.40;;;;;;5035162;28;20593;-69
2022/09/04 13:48:19;;;;;;;2.50;2.30;;;27.40;95.60;;;;;;5048580;28;20767;-70
2022/09/04 13:51:00;;;;;;;2.63;2.42;;;27.50;95.20;;;;;;5049966;28;20225;-70
2022/09/04 13:54:07;;;;;;;2.60;2.40;;;27.50;95.30;;;;;;5045031;28;20585;-70
2022/09/04 13:56:44;;;;;;;2.60;2.40;;;27.50;95.00;;;;;;5029082;28;20716;-70
2022/09/04 13:59:16;;;;;;;5.33;3.23;;;27.60;94.80;;;;;;5029267;28;20689;-70
2022/09/04 14:01:45;;;;;;;2.90;2.70;;;27.60;94.50;;;;;;5025471;28;20594;-70
2022/09/04 14:04:45;;;;;;;2.20;2.00;;;27.70;94.30;;;;;;5048385;28;20221;-69
2022/09/04 14:07:34;;;;;;;3.50;2.57;;;27.60;92.90;;;;;;5029277;28;20225;-71
2022/09/04 14:10:07;;;;;;;2.47;2.33;;;27.70;93.10;;;;;;5041246;28;20241;-69
2022/09/04 14:12:50;;;;;;;2.60;2.50;;;27.80;93.20;;;;;;5046350;28;20228;-70
2022/09/04 14:15:30;;;;;;;2.60;2.40;;;27.90;92.60;;;;;;5043767;28;20250;-70
2022/09/04 14:18:26;;;;;;;2.58;2.38;;;28.20;91.70;;;;;;5039642;28;20603;-70
2022/09/04 14:20:58;;;;;;;2.80;2.60;;;28.30;91.60;;;;;;5038518;28;20226;-70